createdAt,value
2023-04-22T00:00:17.081Z,8.40
2023-04-22T00:02:45.793Z,6.15
2023-04-22T00:05:17.022Z,3.05
2023-04-22T00:07:47.405Z,4.25
2023-04-22T00:10:15.561Z,7.97
2023-04-22T00:12:43.439Z,7.00
2023-04-22T00:15:13.469Z,6.05
2023-04-22T00:17:42.774Z,4.28
2023-04-22T00:20:12.656Z,5.27
2023-04-22T00:22:40.642Z,6.65
2023-04-22T00:25:09.564Z,4.10
2023-04-22T00:27:37.778Z,4.72
2023-04-22T00:30:06.655Z,4.20
2023-04-22T00:32:36.027Z,3.22
2023-04-22T00:35:04.038Z,8.20
2023-04-22T00:37:31.968Z,3.95
2023-04-22T00:39:59.825Z,7.10
2023-04-22T00:42:28.342Z,3.78
2023-04-22T00:44:56.812Z,5.63
2023-04-22T00:47:26.981Z,7.57
2023-04-22T00:49:56.395Z,8.07
2023-04-22T00:52:24.227Z,6.33
2023-04-22T00:54:53.168Z,5.05
2023-04-22T00:57:21.637Z,6.30
2023-04-22T00:59:50.542Z,5.57
2023-04-22T01:02:19.286Z,5.43
2023-04-22T01:04:48.098Z,5.45
2023-04-22T01:07:17.428Z,6.13
2023-04-22T01:09:45.278Z,7.77
2023-04-22T01:12:13.165Z,4.25
2023-04-22T01:14:41.323Z,3.75
2023-04-22T01:17:10.674Z,7.30
2023-04-22T01:19:38.870Z,6.00
2023-04-22T01:22:08.930Z,4.95
2023-04-22T01:24:38.752Z,7.15
2023-04-22T01:27:06.612Z,3.35
2023-04-22T01:29:34.712Z,3.35
2023-04-22T01:32:04.053Z,3.58
2023-04-22T01:34:32.439Z,7.50
2023-04-22T01:37:00.397Z,6.93
2023-04-22T01:39:28.712Z,7.38
2023-04-22T01:41:58.576Z,8.95
2023-04-22T01:44:26.930Z,6.03
2023-04-22T01:46:55.252Z,5.88
2023-04-22T01:49:23.252Z,5.53
2023-04-22T01:51:51.078Z,4.72
2023-04-22T01:54:19.066Z,6.95
2023-04-22T01:56:51.946Z,3.60
2023-04-22T01:59:21.513Z,7.45
2023-04-22T02:01:49.615Z,6.70
2023-04-22T02:04:17.683Z,6.05
2023-04-22T02:06:45.596Z,3.58
2023-04-22T02:09:13.504Z,8.13
2023-04-22T02:11:41.402Z,7.30
2023-04-22T02:14:09.391Z,3.38
2023-04-22T02:16:38.671Z,10.48
2023-04-22T02:19:06.596Z,8.37
2023-04-22T02:21:34.854Z,6.60
2023-04-22T02:24:02.969Z,6.63
2023-04-22T02:26:30.877Z,6.80
2023-04-22T02:29:01.594Z,11.23
2023-04-22T02:31:29.618Z,4.97
2023-04-22T02:33:58.971Z,6.40
2023-04-22T02:36:27.781Z,7.90
2023-04-22T02:38:55.738Z,7.50
2023-04-22T02:41:23.672Z,7.45
2023-04-22T02:43:51.562Z,6.60
2023-04-22T02:46:19.600Z,6.72
2023-04-22T02:48:48.750Z,4.10
2023-04-22T02:51:18.014Z,9.25
2023-04-22T02:53:45.938Z,4.90
2023-04-22T02:56:13.837Z,6.20
2023-04-22T02:58:41.827Z,7.30
2023-04-22T03:01:09.765Z,6.15
2023-04-22T03:03:37.963Z,6.30
2023-04-22T03:06:06.205Z,8.77
2023-04-22T03:08:35.559Z,5.38
2023-04-22T03:11:03.426Z,9.75
2023-04-22T03:13:31.241Z,8.55
2023-04-22T03:15:59.298Z,8.48
2023-04-22T03:18:27.297Z,10.63
2023-04-22T03:20:55.285Z,6.80
2023-04-22T03:23:23.237Z,8.70
2023-04-22T03:25:52.477Z,7.57
2023-04-22T03:28:20.377Z,6.67
2023-04-22T03:30:48.679Z,5.63
2023-04-22T03:33:16.750Z,9.88
2023-04-22T03:35:44.838Z,5.07
2023-04-22T03:38:12.761Z,8.68
2023-04-22T03:40:41.118Z,4.35
2023-04-22T03:43:10.774Z,9.93
2023-04-22T03:45:38.793Z,6.70
2023-04-22T03:48:07.117Z,8.23
2023-04-22T03:50:35.093Z,8.40
2023-04-22T03:53:03.042Z,7.32
2023-04-22T03:55:30.854Z,6.28
2023-04-22T03:57:58.915Z,5.55
2023-04-22T04:00:30.588Z,6.57
2023-04-22T04:02:58.647Z,8.02
2023-04-22T04:05:27.080Z,7.63
2023-04-22T04:07:55.373Z,8.32
2023-04-22T04:10:23.400Z,8.77
2023-04-22T04:12:51.372Z,7.28
2023-04-22T04:15:21.366Z,6.80
2023-04-22T04:17:50.806Z,6.38
2023-04-22T04:20:18.826Z,7.15
2023-04-22T04:22:46.842Z,8.60
2023-04-22T04:25:14.759Z,8.25
2023-04-22T04:27:42.702Z,8.27
2023-04-22T04:30:11.447Z,7.93
2023-04-22T04:32:39.997Z,6.35
2023-04-22T04:35:12.990Z,9.80
2023-04-22T04:37:40.914Z,7.82
2023-04-22T04:40:12.262Z,6.80
2023-04-22T04:42:40.219Z,7.53
2023-04-22T04:45:10.344Z,7.13
2023-04-22T04:50:07.027Z,7.70
2023-04-22T04:52:36.341Z,9.38
2023-04-22T04:55:04.351Z,8.33
2023-04-22T04:57:32.273Z,10.65
2023-04-22T05:00:00.587Z,14.05
2023-04-22T05:02:28.630Z,9.15
2023-04-22T05:04:56.921Z,11.15
2023-04-22T05:07:24.952Z,7.43
2023-04-22T05:09:54.225Z,10.35
2023-04-22T05:12:22.119Z,10.17
2023-04-22T05:14:50.101Z,6.35
2023-04-22T05:17:18.060Z,6.70
2023-04-22T05:19:46.110Z,8.73
2023-04-22T05:22:14.039Z,8.25
2023-04-22T05:24:41.970Z,4.90
2023-04-22T05:27:11.432Z,7.30
2023-04-22T05:29:39.526Z,9.35
2023-04-22T05:32:08.537Z,6.55
2023-04-22T05:34:36.699Z,6.18
2023-04-22T05:37:05.550Z,7.50
2023-04-22T05:39:33.650Z,5.07
2023-04-22T05:42:01.941Z,8.10
2023-04-22T05:44:31.133Z,5.75
2023-04-22T05:46:58.992Z,4.70
2023-04-22T05:49:26.835Z,6.15
2023-04-22T05:51:54.787Z,4.22
2023-04-22T05:54:22.659Z,3.78
2023-04-22T05:56:50.720Z,4.65
2023-04-22T05:59:19.687Z,5.38
2023-04-22T06:01:51.166Z,7.75
2023-04-22T06:04:20.228Z,4.63
2023-04-22T06:06:48.540Z,5.20
2023-04-22T06:09:16.412Z,6.90
2023-04-22T06:11:44.257Z,3.50
2023-04-22T06:14:13.116Z,3.58
2023-04-22T06:16:41.199Z,5.00
2023-04-22T06:19:10.508Z,7.72
2023-04-22T06:21:40.498Z,4.00
2023-04-22T06:24:10.271Z,11.57
2023-04-22T06:26:38.316Z,4.65
2023-04-22T06:29:06.666Z,6.10
2023-04-22T06:31:34.814Z,4.03
2023-04-22T06:34:02.776Z,3.88
2023-04-22T06:36:33.105Z,2.65
2023-04-22T06:39:01.143Z,3.60
2023-04-22T06:41:29.065Z,4.10
2023-04-22T06:43:56.948Z,3.72
2023-04-22T06:46:24.945Z,7.32
2023-04-22T06:48:52.787Z,6.90
2023-04-22T06:51:20.836Z,8.38
2023-04-22T06:53:50.175Z,5.55
2023-04-22T06:56:18.137Z,8.45
2023-04-22T06:58:46.032Z,4.47
2023-04-22T07:01:13.920Z,6.18
2023-04-22T07:03:41.909Z,6.78
2023-04-22T07:06:10.774Z,5.47
2023-04-22T07:08:38.789Z,3.35
2023-04-22T07:11:08.112Z,8.80
2023-04-22T07:13:36.066Z,5.80
2023-04-22T07:16:04.106Z,4.63
2023-04-22T07:18:32.170Z,5.25
2023-04-22T07:21:00.118Z,8.52
2023-04-22T07:23:28.152Z,5.55
2023-04-22T07:25:56.137Z,2.00
2023-04-22T07:28:25.538Z,5.65
2023-04-22T07:30:55.722Z,6.22
2023-04-22T07:33:23.659Z,4.05
2023-04-22T07:35:51.515Z,4.65
2023-04-22T07:38:19.488Z,8.02
2023-04-22T07:40:47.440Z,5.78
2023-04-22T07:43:15.296Z,2.45
2023-04-22T07:45:44.890Z,5.65
2023-04-22T07:48:12.808Z,2.03
2023-04-22T07:50:40.997Z,5.43
2023-04-22T07:53:10.784Z,4.20
2023-04-22T07:55:38.777Z,2.92
2023-04-22T07:58:06.880Z,6.32
2023-04-22T08:00:35.400Z,3.03
2023-04-22T08:03:05.914Z,3.83
2023-04-22T08:05:35.996Z,6.32
2023-04-22T08:08:03.933Z,4.22
2023-04-22T08:10:31.875Z,2.85
2023-04-22T08:12:59.831Z,6.72
2023-04-22T08:15:27.775Z,5.10
2023-04-22T08:17:55.740Z,4.75
2023-04-22T08:20:25.684Z,7.25
2023-04-22T08:22:58.197Z,7.10
2023-04-22T08:25:26.529Z,5.18
2023-04-22T08:27:54.575Z,5.47
2023-04-22T08:30:22.639Z,7.90
2023-04-22T08:32:53.091Z,6.13
2023-04-22T08:37:50.127Z,3.40
2023-04-22T08:40:17.958Z,6.43
2023-04-22T08:42:46.124Z,4.47
2023-04-22T08:45:15.042Z,3.50
2023-04-22T08:47:44.387Z,4.18
2023-04-22T08:50:12.852Z,2.35
2023-04-22T08:52:41.055Z,3.38
2023-04-22T08:55:10.879Z,7.60
2023-04-22T08:57:40.371Z,7.15
2023-04-22T09:00:10.055Z,7.23
2023-04-22T09:02:39.494Z,4.30
2023-04-22T09:05:09.651Z,4.60
2023-04-22T09:07:38.322Z,7.53
2023-04-22T09:10:08.391Z,4.53
2023-04-22T09:12:38.598Z,5.82
2023-04-22T09:15:08.804Z,3.65
2023-04-22T09:17:38.418Z,1.92
2023-04-22T09:20:08.841Z,2.30
2023-04-22T09:25:16.202Z,4.47
2023-04-22T09:27:49.751Z,4.30
2023-04-22T09:30:20.013Z,5.03
2023-04-22T09:32:55.797Z,5.18
2023-04-22T09:35:31.137Z,4.22
2023-04-22T09:38:00.484Z,3.35
2023-04-22T09:40:29.742Z,3.05
2023-04-22T09:43:03.541Z,2.45
2023-04-22T09:45:33.417Z,11.77
2023-04-22T09:48:03.318Z,2.40
2023-04-22T09:50:31.331Z,4.60
2023-04-22T09:53:01.242Z,7.57
2023-04-22T09:55:31.150Z,7.07
2023-04-22T09:58:07.348Z,2.97
2023-04-22T10:00:37.833Z,18.25
2023-04-22T10:05:38.668Z,6.45
2023-04-22T10:08:07.759Z,5.57
2023-04-22T10:10:36.472Z,6.85
2023-04-22T10:13:07.102Z,4.28
2023-04-22T10:15:37.718Z,4.63
2023-04-22T10:18:09.706Z,1.88
2023-04-22T10:20:39.085Z,3.90
2023-04-22T10:23:08.152Z,3.95
2023-04-22T10:25:36.005Z,22.05
2023-04-22T10:28:06.708Z,8.38
2023-04-22T10:30:36.723Z,4.47
2023-04-22T10:33:37.300Z,3.30
2023-04-22T10:38:42.089Z,5.15
2023-04-22T10:41:15.423Z,5.28
2023-04-22T10:43:46.291Z,3.85
2023-04-22T10:46:52.152Z,8.27
2023-04-22T10:49:21.810Z,4.10
2023-04-22T10:51:51.110Z,4.53
2023-04-22T10:54:56.550Z,3.23
2023-04-22T10:57:31.192Z,3.65
2023-04-22T11:00:01.294Z,6.38
2023-04-22T11:02:29.396Z,2.00
2023-04-22T11:05:23.436Z,8.82
2023-04-22T11:07:55.808Z,9.23
2023-04-22T11:13:02.439Z,3.97
2023-04-22T11:15:32.509Z,5.93
2023-04-22T11:18:00.633Z,11.88
2023-04-22T11:20:29.780Z,3.90
2023-04-22T11:22:58.920Z,7.28
2023-04-22T11:25:27.636Z,4.65
2023-04-22T11:27:56.249Z,8.75
2023-04-22T11:30:26.397Z,1.85
2023-04-22T11:32:58.848Z,5.35
2023-04-22T11:35:29.040Z,9.38
2023-04-22T11:37:58.738Z,4.00
2023-04-22T11:40:32.117Z,9.00
2023-04-22T11:43:03.463Z,5.60
2023-04-22T11:45:33.431Z,9.32
2023-04-22T11:48:03.974Z,7.25
2023-04-22T11:53:02.612Z,4.75
2023-04-22T11:55:33.087Z,2.72
2023-04-22T12:00:33.108Z,3.55
2023-04-22T12:03:03.760Z,4.38
2023-04-22T12:05:40.190Z,4.45
2023-04-22T12:08:09.916Z,2.35
2023-04-22T12:10:42.735Z,2.38
2023-04-22T12:13:11.041Z,2.47
2023-04-22T12:15:44.040Z,6.82
2023-04-22T12:18:13.688Z,5.53
2023-04-22T12:20:42.605Z,2.60
2023-04-22T12:23:15.437Z,3.15
2023-04-22T12:25:44.395Z,4.63
2023-04-22T12:28:13.128Z,1.33
2023-04-22T12:30:41.120Z,5.60
2023-04-22T12:33:09.483Z,3.65
2023-04-22T12:35:39.034Z,5.53
2023-04-22T12:38:06.894Z,2.97
2023-04-22T12:40:34.779Z,1.85
2023-04-22T12:43:06.173Z,7.03
2023-04-22T12:45:34.157Z,1.70
2023-04-22T12:48:02.180Z,2.63
2023-04-22T12:50:30.273Z,7.90
2023-04-22T12:52:59.567Z,3.25
2023-04-22T12:55:28.246Z,2.42
2023-04-22T12:57:56.791Z,4.20
2023-04-22T13:00:25.506Z,2.55
2023-04-22T13:02:53.559Z,3.53
2023-04-22T13:05:21.755Z,4.20
2023-04-22T13:07:56.429Z,1.63
2023-04-22T13:10:35.821Z,3.25
2023-04-22T13:13:16.666Z,3.92
2023-04-22T13:15:46.053Z,2.85
2023-04-22T13:18:14.016Z,1.67
2023-04-22T13:20:42.716Z,1.58
2023-04-22T13:23:10.886Z,1.65
2023-04-22T13:25:40.349Z,3.35
2023-04-22T13:28:08.255Z,3.75
2023-04-22T13:30:36.124Z,3.95
2023-04-22T13:33:04.094Z,3.47
2023-04-22T13:35:32.743Z,2.08
2023-04-22T13:38:03.173Z,3.30
2023-04-22T13:43:00.382Z,2.08
2023-04-22T13:45:28.506Z,4.80
2023-04-22T13:51:14.086Z,1.50
2023-04-22T13:53:42.041Z,8.85
2023-04-22T13:56:09.997Z,2.42
2023-04-22T13:58:37.884Z,3.33
2023-04-22T14:01:09.318Z,3.00
2023-04-22T14:03:38.004Z,1.83
2023-04-22T14:06:06.285Z,2.78
2023-04-22T14:08:35.669Z,6.20
2023-04-22T14:11:04.050Z,3.90
2023-04-22T14:13:32.292Z,3.30
2023-04-22T14:16:00.616Z,6.60
2023-04-22T14:18:28.897Z,3.38
2023-04-22T14:20:57.100Z,8.70
2023-04-22T14:23:24.966Z,5.35
2023-04-22T14:25:54.389Z,4.68
2023-04-22T14:28:22.429Z,5.75
2023-04-22T14:30:50.424Z,2.30
2023-04-22T14:33:18.369Z,3.90
2023-04-22T14:35:46.337Z,3.35
2023-04-22T14:38:14.479Z,2.78
2023-04-22T14:40:42.447Z,3.85
2023-04-22T14:43:11.696Z,5.93
2023-04-22T14:45:40.809Z,11.32
2023-04-22T14:48:08.823Z,4.25
2023-04-22T14:50:37.154Z,5.72
2023-04-22T14:53:05.012Z,6.40
2023-04-22T14:55:35.394Z,4.47
2023-04-22T14:58:03.382Z,4.35
2023-04-22T15:00:32.689Z,4.80
2023-04-22T15:03:00.895Z,6.57
2023-04-22T15:05:28.881Z,5.75
2023-04-22T15:07:57.873Z,7.95
2023-04-22T15:10:26.334Z,4.68
2023-04-22T15:12:55.001Z,4.85
2023-04-22T15:15:22.885Z,2.75
2023-04-22T15:17:52.591Z,6.50
2023-04-22T15:20:20.584Z,5.03
2023-04-22T15:22:52.076Z,2.22
2023-04-22T15:25:19.981Z,8.00
2023-04-22T15:27:48.713Z,4.28
2023-04-22T15:30:16.778Z,7.45
2023-04-22T15:32:44.679Z,3.47
2023-04-22T15:35:14.200Z,2.03
2023-04-22T15:37:42.071Z,3.85
2023-04-22T15:40:10.521Z,2.97
2023-04-22T15:42:38.441Z,4.10
2023-04-22T15:45:07.482Z,2.00
2023-04-22T15:47:36.755Z,5.00
2023-04-22T15:50:08.938Z,3.63
2023-04-22T15:52:39.757Z,8.77
2023-04-22T15:55:09.336Z,2.88
2023-04-22T15:57:37.457Z,6.35
2023-04-22T16:00:11.995Z,5.28
2023-04-22T16:02:42.389Z,4.10
2023-04-22T16:05:11.381Z,6.68
2023-04-22T16:07:41.012Z,6.32
2023-04-22T16:10:10.378Z,4.53
2023-04-22T16:12:38.343Z,2.58
2023-04-22T16:15:07.949Z,3.28
2023-04-22T16:17:36.141Z,2.63
2023-04-22T16:20:05.893Z,3.55
2023-04-22T16:22:33.915Z,1.92
2023-04-22T16:25:03.199Z,2.92
2023-04-22T16:27:31.834Z,5.32
2023-04-22T16:29:59.930Z,5.70
2023-04-22T16:32:27.937Z,2.97
2023-04-22T16:34:55.942Z,8.90
2023-04-22T16:37:24.150Z,13.52
2023-04-22T16:39:52.231Z,7.40
2023-04-22T16:42:21.580Z,6.93
2023-04-22T16:44:49.579Z,10.18
2023-04-22T16:47:17.468Z,4.22
2023-04-22T16:49:45.427Z,5.68
2023-04-22T16:52:13.361Z,2.63
2023-04-22T16:54:42.514Z,3.70
2023-04-22T16:57:11.525Z,8.73
2023-04-22T16:59:41.214Z,7.25
2023-04-22T17:02:10.193Z,4.03
2023-04-22T17:04:38.612Z,2.33
2023-04-22T17:07:06.656Z,2.85
2023-04-22T17:09:34.568Z,2.60
2023-04-22T17:12:02.664Z,2.92
2023-04-22T17:14:31.076Z,2.55
2023-04-22T17:17:00.441Z,3.22
2023-04-22T17:19:28.432Z,6.07
2023-04-22T17:21:56.609Z,4.82
2023-04-22T17:24:24.984Z,5.53
2023-04-22T17:26:52.973Z,9.18
2023-04-22T17:29:21.799Z,4.80
2023-04-22T17:31:50.012Z,4.07
2023-04-22T17:34:19.472Z,7.10
2023-04-22T17:36:47.410Z,6.88
2023-04-22T17:39:15.382Z,2.88
2023-04-22T17:41:43.270Z,5.47
2023-04-22T17:44:11.350Z,12.93
2023-04-22T17:46:39.282Z,5.25
2023-04-22T17:49:07.258Z,6.35
2023-04-22T17:51:36.656Z,3.90
2023-04-22T17:54:05.447Z,6.38
2023-04-22T17:56:33.417Z,4.85
2023-04-22T17:59:01.361Z,4.68
2023-04-22T18:01:30.459Z,5.38
2023-04-22T18:03:59.410Z,3.70
2023-04-22T18:06:28.995Z,4.20
2023-04-22T18:08:58.330Z,4.68
2023-04-22T18:11:27.921Z,4.43
2023-04-22T18:13:56.014Z,12.57
2023-04-22T18:16:23.966Z,5.22
2023-04-22T18:18:51.889Z,6.22
2023-04-22T18:21:19.789Z,6.95
2023-04-22T18:23:47.741Z,6.53
2023-04-22T18:26:17.139Z,6.90
2023-04-22T18:28:45.085Z,3.45
2023-04-22T18:31:13.161Z,5.45
2023-04-22T18:33:41.190Z,6.00
2023-04-22T18:36:09.637Z,3.00
2023-04-22T18:38:38.695Z,6.18
2023-04-22T18:41:06.864Z,4.28
2023-04-22T18:43:36.567Z,5.95
2023-04-22T18:46:04.521Z,4.95
2023-04-22T18:48:32.465Z,3.22
2023-04-22T18:51:00.614Z,4.05
2023-04-22T18:53:28.574Z,4.53
2023-04-22T18:55:56.564Z,8.05
2023-04-22T18:58:24.462Z,3.88
2023-04-22T19:00:53.968Z,5.65
2023-04-22T19:03:22.223Z,3.35
2023-04-22T19:05:50.195Z,2.45
2023-04-22T19:08:18.065Z,2.72
2023-04-22T19:10:45.997Z,5.30
2023-04-22T19:13:28.691Z,7.60
2023-04-22T19:15:58.946Z,3.47
2023-04-22T19:18:27.223Z,4.93
2023-04-22T19:20:57.729Z,3.42
2023-04-22T19:25:53.336Z,4.72
2023-04-22T19:28:21.247Z,6.28
2023-04-22T19:30:49.243Z,4.47
2023-04-22T19:33:18.641Z,6.20
2023-04-22T19:35:46.754Z,6.78
2023-04-22T19:38:18.975Z,6.80
2023-04-22T19:40:47.424Z,7.30
2023-04-22T19:43:17.139Z,5.15
2023-04-22T19:45:45.060Z,5.75
2023-04-22T19:48:13.473Z,4.78
2023-04-22T19:50:44.957Z,7.13
2023-04-22T19:53:13.833Z,5.72
2023-04-22T19:55:44.042Z,5.07
2023-04-22T19:58:12.335Z,2.63
2023-04-22T20:00:40.524Z,4.60
2023-04-22T20:03:10.077Z,4.18
2023-04-22T20:05:38.676Z,3.33
2023-04-22T20:08:09.380Z,4.20
2023-04-22T20:10:37.778Z,4.55
2023-04-22T20:13:06.209Z,7.50
2023-04-22T20:15:34.287Z,7.13
2023-04-22T20:18:02.505Z,6.35
2023-04-22T20:20:30.924Z,4.35
2023-04-22T20:23:04.138Z,111.78
2023-04-22T20:25:35.072Z,172.65
2023-04-22T20:28:03.820Z,131.10
2023-04-22T20:30:32.023Z,66.05
2023-04-22T20:33:00.259Z,41.33
2023-04-22T20:35:28.779Z,29.75
2023-04-22T20:38:00.288Z,13.73
2023-04-22T20:40:40.412Z,23.92
2023-04-22T20:43:13.005Z,31.85
2023-04-22T20:45:41.003Z,28.58
2023-04-22T20:48:09.286Z,13.35
2023-04-22T20:50:40.550Z,15.07
2023-04-22T20:53:08.539Z,4.70
2023-04-22T20:55:37.285Z,9.25
2023-04-22T20:58:05.488Z,5.60
2023-04-22T21:00:35.423Z,8.32
2023-04-22T21:03:05.479Z,5.22
2023-04-22T21:05:45.944Z,8.38
2023-04-22T21:08:22.801Z,5.07
2023-04-22T21:10:52.337Z,2.97
2023-04-22T21:13:21.196Z,4.05
2023-04-22T21:15:57.272Z,2.00
2023-04-22T21:18:27.029Z,6.82
2023-04-22T21:20:57.415Z,4.95
2023-04-22T21:25:56.174Z,7.90
2023-04-22T21:28:24.776Z,4.43
2023-04-22T21:30:54.590Z,5.45
2023-04-22T21:33:23.783Z,3.72
2023-04-22T21:35:51.988Z,3.08
2023-04-22T21:38:20.094Z,4.82
2023-04-22T21:40:48.649Z,2.97
2023-04-22T21:43:16.614Z,2.00
2023-04-22T21:45:44.484Z,2.80
2023-04-22T21:48:14.010Z,4.00
2023-04-22T21:50:41.919Z,1.77
2023-04-22T21:53:09.891Z,3.17
2023-04-22T21:55:37.895Z,5.53
2023-04-22T21:58:05.785Z,4.72
2023-04-22T22:00:33.696Z,5.22
2023-04-22T22:03:01.958Z,4.43
2023-04-22T22:05:31.837Z,1.75
2023-04-22T22:07:59.790Z,5.70
2023-04-22T22:10:28.118Z,3.88
2023-04-22T22:12:56.117Z,2.38
2023-04-22T22:15:24.277Z,4.22
2023-04-22T22:17:52.309Z,7.50
2023-04-22T22:20:22.619Z,6.28
2023-04-22T22:22:51.986Z,5.07
2023-04-22T22:25:19.820Z,7.10
2023-04-22T22:27:49.390Z,2.22
2023-04-22T22:30:18.629Z,1.92
2023-04-22T22:32:46.720Z,3.53
2023-04-22T22:35:15.159Z,2.72
2023-04-22T22:37:43.032Z,3.97
2023-04-22T22:40:13.588Z,5.07
2023-04-22T22:42:41.559Z,3.95
2023-04-22T22:45:10.607Z,6.47
2023-04-22T22:47:38.623Z,6.22
2023-04-22T22:50:08.282Z,5.15
2023-04-22T22:52:36.371Z,7.18
2023-04-22T22:55:04.479Z,12.00
2023-04-22T22:57:33.767Z,7.60
2023-04-22T23:00:01.581Z,2.50
2023-04-22T23:02:29.702Z,6.43
2023-04-22T23:04:58.306Z,5.43
2023-04-22T23:07:26.381Z,2.35
2023-04-22T23:09:54.328Z,3.47
2023-04-22T23:12:22.283Z,4.55
2023-04-22T23:14:51.561Z,4.20
2023-04-22T23:17:20.693Z,6.95
2023-04-22T23:19:52.611Z,4.35
2023-04-22T23:22:21.027Z,6.55
2023-04-22T23:24:49.337Z,3.20
2023-04-22T23:27:18.020Z,1.90
2023-04-22T23:29:46.554Z,3.88
2023-04-22T23:32:16.751Z,4.22
2023-04-22T23:34:46.965Z,6.90
2023-04-22T23:37:16.239Z,2.67
2023-04-22T23:39:44.504Z,4.03
2023-04-22T23:42:12.373Z,4.68
2023-04-22T23:44:40.804Z,2.78
2023-04-22T23:47:08.956Z,2.33
2023-04-22T23:49:38.429Z,3.33
2023-04-22T23:52:09.763Z,2.30
2023-04-22T23:54:40.389Z,3.30
2023-04-22T23:57:09.260Z,3.45
2023-04-22T23:59:37.704Z,3.35
